Monday, April 24, 2017, 3:52 PM CDT
Back to Local

KMDW, Chicago Midway Airport

Location: Chicago, IL, United States Lat: 41.783
Local Time: 3:52 PM CDT (20:52 GMT) Lon: -87.75
Time Zone: US/Central Elev: 620 ft

Show me the last for .
Show Decoded

2017-04-24 14:53 METAR KMDW 241953Z 08011KT 10SM BKN250 22/01 A2988 RMK AO2 SLP117 T02170011 =
2017-04-24 13:53 METAR KMDW 241853Z 11011G15KT 10SM BKN250 22/01 A2992 RMK AO2 SLP129 T02170011 =
2017-04-24 12:53 METAR KMDW 241753Z 11006KT 10SM BKN250 21/02 A2994 RMK AO2 SLP137 T02110022
                 10211 20072 58025 =
2017-04-24 11:53 METAR KMDW 241653Z 11012KT 10SM BKN250 21/02 A2997 RMK AO2 SLP147 T02060017 =
2017-04-24 10:53 METAR KMDW 241553Z 09009KT 10SM BKN250 19/01 A3000 RMK AO2 SLP157 T01890006 =
2017-04-24 09:53 METAR KMDW 241453Z 11009KT 10SM BKN250 17/03 A3001 RMK AO2 SLP161 T01670033
                 58006 =
2017-04-24 08:53 METAR KMDW 241353Z 11004KT 10SM SCT250 13/06 A3003 RMK AO2 SLP168 T01330056 =
2017-04-24 07:53 METAR KMDW 241253Z 03003KT 10SM FEW250 10/05 A3003 RMK AO2 SLP170 T01000050 =
2017-04-24 06:53 METAR KMDW 241153Z 00000KT 10SM FEW250 07/04 A3003 RMK AO2 SLP170 T00720044
                 10083 20056 53002 =
2017-04-24 05:53 METAR KMDW 241053Z 04003KT 10SM FEW250 06/04 A3002 RMK AO2 SLP167 T00610039 $ =
2017-04-24 04:53 METAR KMDW 240953Z 01005KT 10SM FEW250 06/03 A3002 RMK AO2 SLP165 T00610033 $ =
2017-04-24 03:53 METAR KMDW 240853Z 02004KT 10SM FEW250 07/04 A3003 RMK AO2 SLP167 T00670039
                 55005 $ =
2017-04-24 02:53 METAR KMDW 240753Z 02004KT 10SM SCT250 07/04 A3001 RMK AO2 SLP162 T00670039 $ =
2017-04-24 01:53 METAR KMDW 240653Z 03006KT 10SM SCT250 07/04 A3003 RMK AO2 SLP168 T00720039 $ =
2017-04-24 00:53 METAR KMDW 240553Z 02005KT 10SM BKN250 08/04 A3004 RMK AO2 SLP171 T00830039
                 10183 20083 402060039 58002 $ =
2017-04-23 23:53 METAR KMDW 240453Z 02004KT 10SM BKN250 09/04 A3005 RMK AO2 SLP175 T00940039 =
2017-04-23 22:53 METAR KMDW 240353Z 36007KT 10SM BKN250 12/04 A3004 RMK AO2 SLP170 T01170039 =
2017-04-23 21:53 METAR KMDW 240253Z 07006KT 10SM BKN250 16/M04 A3005 RMK AO2 SLP173 T01561039
                 50000 =
2017-04-23 20:53 METAR KMDW 240153Z 11004KT 10SM BKN250 16/M03 A3006 RMK AO2 SLP177 T01561033 =
2017-04-23 19:53 METAR KMDW 240053Z 11007KT 10SM FEW250 17/M03 A3005 RMK AO2 SLP175 T01671028 =
2017-04-23 18:53 METAR KMDW 232353Z 12009KT 10SM FEW250 18/M02 A3005 RMK AO2 SLP175 T01831017
                 10206 20178 55000 =
2017-04-23 17:53 METAR KMDW 232253Z 10012KT 10SM FEW250 19/00 A3005 RMK AO2 SLP175 T01940000 =
2017-04-23 16:53 METAR KMDW 232153Z 09009KT 10SM FEW250 19/01 A3005 RMK AO2 SLP175 T01940006 =
2017-04-23 15:53 METAR KMDW 232053Z 08011KT 10SM CLR 21/00 A3005 RMK AO2 SLP175 T02060000 56014 =

Support USWX by starting your Amazon purchase here.